Time;durP1;ratioP1;P1;durP2;ratioP2;P2;SDS_P1;SDS_P2;PMS_P1;PMS_P2;Temp;Humidity;BMP_temperature;BMP_pressure;BME280_temperature;BME280_humidity;BME280_pressure;Samples;Min_cycle;Max_cycle;Signal;HPM_P1;HPM_P2
2022/09/26 04:46:22;;;;;;;;;1.00;1.00;;;;;14.95;56.21;100842.16;2407867;23;45898;-77
2022/09/26 04:47:33;;;;;;;;;2.75;0.75;;;;;14.95;56.40;100836.88;2379633;28;45522;-77
2022/09/26 04:48:43;;;;;;;;;1.00;0.00;;;;;14.95;56.34;100836.88;2379623;28;45641;-77
2022/09/26 04:49:53;;;;;;;;;0.00;0.00;;;;;14.97;56.56;100840.28;2376795;28;45234;-77
2022/09/26 04:51:06;;;;;;;;;1.50;1.00;;;;;14.96;56.46;100830.66;2381993;28;45409;-77
2022/09/26 04:52:16;;;;;;;;;0.50;0.50;;;;;14.99;56.54;100833.13;2383920;28;45364;-77
2022/09/26 04:53:28;;;;;;;;;0.25;0.25;;;;;14.98;56.39;100826.13;2383472;28;46295;-77
2022/09/26 04:54:38;;;;;;;;;1.00;1.00;;;;;14.99;56.20;100829.63;2381729;28;45559;-77
2022/09/26 04:55:48;;;;;;;;;1.00;1.00;;;;;14.97;56.12;100827.06;2382610;28;46307;-78
2022/09/26 04:56:59;;;;;;;;;1.00;1.00;;;;;14.96;56.12;100817.41;2380608;28;45666;-76
2022/09/26 04:58:10;;;;;;;;;1.00;1.00;;;;;14.99;55.91;100821.69;2383922;28;45315;-76
2022/09/26 04:59:20;;;;;;;;;1.75;1.00;;;;;14.96;56.17;100812.13;2383916;28;45190;-76
2022/09/26 05:00:31;;;;;;;;;1.00;1.00;;;;;14.96;56.72;100801.53;2383623;28;45282;-76
2022/09/26 05:01:41;;;;;;;;;1.00;1.00;;;;;14.96;56.27;100812.97;2384092;28;45225;-76
2022/09/26 05:02:51;;;;;;;;;2.00;0.25;;;;;14.98;56.03;100810.25;2382979;28;45417;-77
2022/09/26 05:04:02;;;;;;;;;1.00;0.25;;;;;14.98;55.85;100807.59;2383750;28;45455;-77
2022/09/26 05:05:13;;;;;;;;;1.50;1.50;;;;;14.96;56.03;100812.97;2385328;28;46236;-76
2022/09/26 05:06:24;;;;;;;;;2.75;1.00;;;;;14.97;56.04;100813.81;2382541;28;44664;-77
2022/09/26 05:07:41;;;;;;;;;1.00;1.00;;;;;14.97;56.29;100813.81;2383899;28;46203;-77
2022/09/26 05:08:51;;;;;;;;;2.50;1.00;;;;;14.97;55.88;100811.16;2385930;28;45138;-77
2022/09/26 05:10:02;;;;;;;;;2.50;0.25;;;;;14.97;55.79;100811.16;2385362;28;48790;-77
2022/09/26 05:11:14;;;;;;;;;1.00;1.00;;;;;15.01;55.86;100815.41;2385846;28;45422;-76
2022/09/26 05:12:25;;;;;;;;;2.50;2.50;;;;;14.98;55.45;100799.66;2385611;28;45372;-77
2022/09/26 05:13:37;;;;;;;;;0.00;0.00;;;;;14.99;55.75;100801.34;2385501;28;45439;-77
2022/09/26 05:14:48;;;;;;;;;1.00;1.00;;;;;14.99;55.86;100801.34;2383764;28;46574;-76
2022/09/26 05:16:00;;;;;;;;;0.25;0.25;;;;;15.00;55.68;100800.44;2376259;28;44763;-76
2022/09/26 05:17:10;;;;;;;;;0.75;0.75;;;;;14.99;55.61;100793.41;2384816;28;45620;-76
2022/09/26 05:18:25;;;;;;;;;2.00;1.25;;;;;15.00;56.30;100791.63;2385590;28;45234;-76
2022/09/26 05:19:35;;;;;;;;;1.00;1.00;;;;;15.02;56.05;100784.47;2383971;28;47291;-76
2022/09/26 05:20:47;;;;;;;;;2.00;1.25;;;;;15.01;56.33;100785.44;2385034;28;45353;-78
2022/09/26 05:21:57;;;;;;;;;2.00;1.00;;;;;15.02;55.87;100782.69;2385047;28;46542;-78
2022/09/26 05:23:09;;;;;;;;;0.25;0.25;;;;;15.01;55.77;100772.19;2385727;28;44647;-78
2022/09/26 05:27:18;;;;;;;;;2.00;1.00;;;;;15.01;55.41;100773.06;2382728;28;45476;-78
2022/09/26 05:28:28;;;;;;;;;1.00;1.00;;;;;15.02;55.58;100760.66;2385782;28;45313;-80
2022/09/26 05:29:38;;;;;;;;;2.25;1.00;;;;;15.00;55.56;100766.03;2385246;28;46266;-78
2022/09/26 05:30:50;;;;;;;;;4.00;2.00;;;;;15.00;55.54;100760.75;2385254;28;45456;-80
2022/09/26 05:32:01;;;;;;;;;1.00;1.00;;;;;15.00;55.73;100766.03;2385428;28;45249;-80
2022/09/26 05:33:12;;;;;;;;;1.00;1.00;;;;;14.99;56.01;100753.72;2385652;28;45254;-80
2022/09/26 05:34:25;;;;;;;;;2.00;2.00;;;;;14.99;55.66;100758.19;2385388;28;45310;-79
2022/09/26 05:35:35;;;;;;;;;4.75;2.00;;;;;14.95;55.47;100762.75;2384871;28;44758;-79
2022/09/26 05:36:46;;;;;;;;;2.00;2.00;;;;;14.95;55.49;100752.19;2385122;28;45339;-79
2022/09/26 05:38:03;;;;;;;;;6.00;1.00;;;;;14.95;55.54;100752.19;2384912;28;45265;-79
2022/09/26 05:40:58;;;;;;;;;3.00;2.00;;;;;14.92;55.72;100749.69;2376371;28;44600;-79
2022/09/26 05:42:08;;;;;;;;;4.75;1.25;;;;;14.91;55.88;100745.34;2376119;28;46538;-79
2022/09/26 06:21:16;;;;;;;;;3.00;2.00;;;;;15.08;55.61;100723.28;2428898;23;45551;-79
2022/09/26 06:22:27;;;;;;;;;1.00;1.00;;;;;15.06;55.71;100723.34;2390320;28;44779;-79
2022/09/26 06:23:38;;;;;;;;;3.00;2.00;;;;;15.05;55.70;100724.31;2388446;28;45463;-79
2022/09/26 06:24:48;;;;;;;;;3.00;1.00;;;;;15.05;55.71;100729.59;2385673;28;45184;-79
2022/09/26 06:26:00;;;;;;;;;2.00;2.00;;;;;15.09;55.55;100726.81;2389869;28;45433;-79
2022/09/26 06:27:10;;;;;;;;;1.00;1.00;;;;;15.08;55.39;100725.94;2384372;28;45263;-79
2022/09/26 06:28:20;;;;;;;;;2.00;2.00;;;;;15.09;55.73;100724.16;2387151;28;45470;-79
2022/09/26 06:29:31;;;;;;;;;1.00;1.00;;;;;15.10;55.51;100723.19;2388981;28;45272;-79
2022/09/26 06:30:41;;;;;;;;;1.00;1.00;;;;;15.09;55.57;100721.50;2387523;28;45446;-79
2022/09/26 06:31:52;;;;;;;;;1.00;1.00;;;;;15.09;55.50;100726.81;2394634;28;44769;-79
2022/09/26 06:33:02;;;;;;;;;3.00;1.00;;;;;15.09;55.92;100724.16;2387666;28;45652;-78
2022/09/26 06:34:13;;;;;;;;;1.00;1.00;;;;;15.07;55.58;100725.06;2389732;28;45342;-79
2022/09/26 06:35:24;;;;;;;;;1.00;1.00;;;;;15.11;55.75;100719.63;2383928;28;47405;-79
2022/09/26 06:36:35;;;;;;;;;1.00;1.00;;;;;15.11;55.71;100724.91;2384013;28;45480;-79
2022/09/26 06:37:46;;;;;;;;;1.00;1.00;;;;;15.10;55.19;100713.47;2386416;28;46012;-79
2022/09/26 06:38:56;;;;;;;;;2.00;1.00;;;;;15.09;55.48;100716.22;2386432;28;45246;-79
2022/09/26 06:40:07;;;;;;;;;2.00;1.00;;;;;15.07;55.62;100714.50;2384340;28;48505;-78
2022/09/26 06:41:18;;;;;;;;;1.75;1.00;;;;;15.09;55.20;100719.69;2387306;28;44594;-79
2022/09/26 06:42:36;;;;;;;;;1.50;1.00;;;;;15.13;55.53;100720.41;2382243;28;46321;-79
2022/09/26 06:43:46;;;;;;;;;1.00;1.00;;;;;15.13;55.61;100718.63;2384414;28;44599;-79
2022/09/26 06:44:56;;;;;;;;;2.00;1.00;;;;;15.12;55.67;100714.25;2387077;28;45441;-79
2022/09/26 06:46:08;;;;;;;;;0.00;0.00;;;;;15.14;55.52;100708.84;2390922;28;45203;-79
2022/09/26 06:47:18;;;;;;;;;0.25;0.25;;;;;15.15;55.56;100710.56;2385271;28;46484;-78
2022/09/26 06:48:28;;;;;;;;;1.00;1.00;;;;;15.18;55.92;100710.44;2394515;28;45223;-79
2022/09/26 06:49:39;;;;;;;;;1.00;1.00;;;;;15.19;55.47;100699.75;2394179;28;46205;-79
2022/09/26 06:50:54;;;;;;;;;1.00;1.00;;;;;15.21;55.84;100712.88;2392710;28;44810;-79
2022/09/26 06:52:04;;;;;;;;;1.00;1.00;;;;;15.22;55.43;100706.66;2393761;28;45337;-79
2022/09/26 06:53:15;;;;;;;;;2.25;2.25;;;;;15.23;55.48;100700.44;2392739;28;45524;-80
2022/09/26 06:54:25;;;;;;;;;1.00;1.00;;;;;15.24;55.50;100714.53;2389646;28;46257;-79
2022/09/26 06:55:36;;;;;;;;;1.25;1.00;;;;;15.23;54.95;100697.81;2385877;28;45203;-79
2022/09/26 06:56:46;;;;;;;;;1.00;1.00;;;;;15.22;55.04;100703.16;2385827;28;45497;-79
2022/09/26 06:57:57;;;;;;;;;1.50;1.50;;;;;15.22;55.20;100706.66;2394317;28;45264;-79
2022/09/26 06:59:07;;;;;;;;;1.50;1.00;;;;;15.21;55.44;100702.28;2394023;28;45501;-79
2022/09/26 07:00:18;;;;;;;;;1.00;1.00;;;;;15.21;55.36;100697.00;2394237;28;45300;-79
2022/09/26 07:01:28;;;;;;;;;4.75;0.50;;;;;15.22;54.93;100684.63;2394182;28;45230;-79
2022/09/26 07:02:48;;;;;;;;;1.00;1.00;;;;;15.24;55.32;100691.56;2394357;28;45155;-79
2022/09/26 07:03:59;;;;;;;;;1.00;1.00;;;;;15.26;55.45;100686.19;2388338;28;46315;-77
2022/09/26 07:05:09;;;;;;;;;1.00;1.00;;;;;15.26;55.00;100687.03;2387892;28;45420;-82
2022/09/26 07:06:19;;;;;;;;;2.00;1.00;;;;;15.22;54.76;100690.78;2393600;28;46424;-83
2022/09/26 07:07:39;;;;;;;;;1.00;1.00;;;;;15.24;55.07;100685.41;2394292;28;44554;-82
2022/09/26 07:08:51;;;;;;;;;1.00;1.00;;;;;15.24;55.37;100691.56;2394230;28;46291;-82
2022/09/26 07:10:01;;;;;;;;;1.00;1.00;;;;;15.24;55.52;100683.59;2394422;28;45492;-84
2022/09/26 07:11:12;;;;;;;;;0.00;0.00;;;;;15.28;55.11;100687.78;2394116;28;46432;-86
2022/09/26 07:12:23;;;;;;;;;1.75;1.00;;;;;15.30;55.27;100688.59;2384015;28;45322;-86
2022/09/26 07:13:35;;;;;;;;;3.00;1.00;;;;;15.30;55.13;100685.94;2375988;28;47271;-86
2022/09/26 07:14:45;;;;;;;;;1.00;0.75;;;;;15.34;55.57;100680.47;2377456;28;45199;-85
2022/09/26 07:15:57;;;;;;;;;4.00;1.50;;;;;15.35;55.22;100684.81;2375614;28;46921;-78
2022/09/26 07:17:14;;;;;;;;;1.75;1.75;;;;;15.38;54.85;100676.72;2383838;28;45331;-78
2022/09/26 07:18:24;;;;;;;;;1.00;1.00;;;;;15.38;54.85;100674.06;2393662;28;45425;-78
2022/09/26 07:19:35;;;;;;;;;1.00;1.00;;;;;15.37;55.20;100673.22;2393932;28;45337;-77
2022/09/26 07:20:46;;;;;;;;;1.00;1.00;;;;;15.41;55.35;100671.25;2393464;28;45365;-77
2022/09/26 07:21:56;;;;;;;;;1.00;1.00;;;;;15.42;55.41;100657.06;2394283;28;45243;-78
2022/09/26 07:23:09;;;;;;;;;1.00;1.00;;;;;15.49;55.20;100668.19;2392263;28;45307;-78
2022/09/26 07:24:20;;;;;;;;;2.00;2.00;;;;;15.48;54.85;100654.06;2392628;28;45235;-77
2022/09/26 07:25:30;;;;;;;;;1.00;1.00;;;;;15.50;55.16;100660.16;2394089;28;46342;-77
2022/09/26 07:26:41;;;;;;;;;0.75;0.75;;;;;15.54;55.21;100647.59;2387429;28;45235;-78
2022/09/26 07:27:52;;;;;;;;;2.00;1.00;;;;;15.57;55.10;100652.72;2387031;28;46068;-78
2022/09/26 07:29:02;;;;;;;;;2.00;2.00;;;;;15.59;55.46;100657.94;2390112;28;45519;-77
2022/09/26 07:30:12;;;;;;;;;0.00;0.00;;;;;15.59;55.11;100647.31;2392370;28;47197;-77
2022/09/26 07:31:23;;;;;;;;;1.00;0.00;;;;;15.59;54.74;100642.91;2377457;28;44683;-78
2022/09/26 07:32:35;;;;;;;;;2.00;2.00;;;;;15.63;55.16;100648.88;2383451;28;45396;-78
2022/09/26 07:33:45;;;;;;;;;2.00;2.00;;;;;15.64;55.07;100639.97;2385555;28;47381;-78
2022/09/26 07:34:58;;;;;;;;;1.00;1.00;;;;;15.69;54.53;100645.03;2389474;28;45765;-78
2022/09/26 07:36:08;;;;;;;;;1.00;1.00;;;;;15.70;54.74;100634.34;2380378;28;45289;-78
2022/09/26 07:37:19;;;;;;;;;1.00;1.00;;;;;15.74;54.85;100638.53;2385926;28;45376;-78
2022/09/26 07:38:29;;;;;;;;;1.00;1.00;;;;;15.74;54.53;100633.22;2383354;28;45266;-79
2022/09/26 07:39:40;;;;;;;;;1.00;1.00;;;;;15.75;54.93;100629.63;2386306;28;45458;-79
2022/09/26 07:40:53;;;;;;;;;1.50;1.50;;;;;15.77;54.77;100626.91;2392353;28;45211;-79
2022/09/26 07:42:03;;;;;;;;;2.00;2.00;;;;;15.80;54.89;100626.75;2389797;28;45903;-80
2022/09/26 07:43:13;;;;;;;;;2.00;1.00;;;;;15.81;54.62;100616.97;2384308;28;45170;-79
2022/09/26 07:44:24;;;;;;;;;1.00;1.00;;;;;15.84;54.76;100622.09;2392804;28;47148;-79
2022/09/26 07:50:11;;;;;;;;;1.00;1.00;;;;;15.98;54.06;100603.59;2393580;28;45428;-78
2022/09/26 07:51:22;;;;;;;;;1.75;1.50;;;;;16.00;54.19;100603.50;2386980;28;46884;-79
2022/09/26 07:52:32;;;;;;;;;1.00;1.00;;;;;16.04;53.96;100606.84;2387758;28;45401;-79
2022/09/26 07:53:42;;;;;;;;;1.00;0.50;;;;;16.05;53.98;100592.69;2393365;28;45357;-80
2022/09/26 07:54:53;;;;;;;;;2.00;1.00;;;;;16.12;54.05;100601.97;2383198;28;48158;-79
2022/09/26 07:56:08;;;;;;;;;1.00;0.50;;;;;16.15;53.69;100593.81;2385334;28;45369;-79
2022/09/26 07:57:19;;;;;;;;;1.00;1.00;;;;;16.16;53.35;100590.25;2393022;28;46360;-79
2022/09/26 07:58:30;;;;;;;;;1.00;1.00;;;;;16.19;53.24;100590.06;2393918;28;45235;-79
2022/09/26 07:59:40;;;;;;;;;2.75;1.00;;;;;16.19;53.15;100592.72;2393615;28;45215;-79
2022/09/26 08:00:50;;;;;;;;;2.00;2.00;;;;;16.19;53.44;100592.72;2393708;28;45396;-79
2022/09/26 08:02:02;;;;;;;;;2.00;1.00;;;;;16.22;53.21;100582.88;2384383;28;46296;-79
2022/09/26 08:03:13;;;;;;;;;3.00;2.00;;;;;16.26;53.31;100589.69;2387204;28;45369;-79
2022/09/26 08:04:23;;;;;;;;;1.00;1.00;;;;;16.26;52.63;100592.34;2386208;28;45499;-78
2022/09/26 08:05:34;;;;;;;;;1.00;1.00;;;;;16.23;53.17;100589.88;2393465;28;45243;-79
2022/09/26 08:06:44;;;;;;;;;1.00;1.00;;;;;16.22;53.04;100590.84;2393560;28;45408;-79
2022/09/26 08:07:55;;;;;;;;;2.25;2.25;;;;;16.22;52.92;100582.88;2393407;28;44758;-78
2022/09/26 08:09:06;;;;;;;;;2.00;1.00;;;;;16.23;53.02;100589.88;2392921;28;45278;-79
2022/09/26 08:10:22;;;;;;;;;3.00;2.00;;;;;16.25;53.24;100595.97;2392596;28;44688;-79
2022/09/26 08:11:33;;;;;;;;;1.00;1.00;;;;;16.24;52.82;100576.53;2390942;28;46182;-79
2022/09/26 08:12:43;;;;;;;;;1.00;1.00;;;;;16.26;52.95;100585.25;2392463;28;45262;-79
2022/09/26 08:13:54;;;;;;;;;1.00;1.00;;;;;16.31;53.17;100584.97;2392769;28;45695;-79
2022/09/26 08:15:06;;;;;;;;;1.75;1.75;;;;;16.33;53.25;100593.69;2393391;28;45366;-79
2022/09/26 08:16:22;;;;;;;;;1.00;1.00;;;;;16.37;52.98;100581.94;2393145;28;45574;-79
2022/09/26 08:17:33;;;;;;;;;1.25;1.25;;;;;16.41;53.00;100586.13;2389316;28;45366;-79
2022/09/26 08:18:44;;;;;;;;;0.75;0.75;;;;;16.44;52.51;100581.59;2384684;28;45381;-79
2022/09/26 08:19:54;;;;;;;;;1.75;1.00;;;;;16.47;52.48;100576.94;2393771;28;44688;-79
2022/09/26 08:21:05;;;;;;;;;0.00;0.00;;;;;16.49;51.81;100574.19;2392901;28;45520;-79
2022/09/26 08:22:15;;;;;;;;;0.25;0.25;;;;;16.48;52.52;100565.38;2393282;28;44687;-79
2022/09/26 08:23:27;;;;;;;;;2.00;1.00;;;;;16.50;52.58;100565.28;2392488;28;45292;-79
2022/09/26 08:24:37;;;;;;;;;1.00;1.00;;;;;16.51;52.85;100561.69;2391283;28;45354;-79
2022/09/26 08:25:48;;;;;;;;;2.50;1.00;;;;;16.51;52.78;100559.03;2388940;28;45270;-79
2022/09/26 08:26:59;;;;;;;;;2.00;1.00;;;;;16.51;52.63;100565.22;2393372;28;45274;-79
2022/09/26 08:28:13;;;;;;;;;1.00;1.00;;;;;16.51;52.36;100556.38;2392503;28;45962;-79
2022/09/26 08:29:23;;;;;;;;;1.50;1.50;;;;;16.49;51.89;100563.59;2385031;28;44816;-79
2022/09/26 08:30:34;;;;;;;;;1.00;1.00;;;;;16.50;52.42;100557.31;2383542;28;46467;-78
2022/09/26 08:31:46;;;;;;;;;2.50;1.25;;;;;16.49;52.26;100560.94;2384302;28;44874;-79
2022/09/26 08:33:00;;;;;;;;;2.00;1.25;;;;;16.50;52.33;100558.19;2388848;28;45532;-79
2022/09/26 08:34:11;;;;;;;;;2.00;2.00;;;;;16.53;52.38;100557.16;2393576;28;45408;-79
2022/09/26 08:35:21;;;;;;;;;2.75;1.50;;;;;16.57;52.39;100557.81;2393175;28;45459;-79
2022/09/26 08:36:32;;;;;;;;;0.00;0.00;;;;;16.62;52.21;100558.38;2386251;28;45423;-79
2022/09/26 08:37:42;;;;;;;;;2.50;2.00;;;;;16.64;52.46;100557.31;2387690;28;45420;-79
2022/09/26 08:38:52;;;;;;;;;2.50;1.00;;;;;16.69;52.41;100553.56;2393225;28;44740;-79
2022/09/26 08:40:03;;;;;;;;;1.50;1.50;;;;;16.73;52.42;100553.25;2392828;28;45365;-79
2022/09/26 08:41:46;;;;;;;;;3.00;1.00;;;;;16.80;52.24;100545.75;2393356;28;45385;-79
2022/09/26 08:43:14;;;;;;;;;1.00;1.00;;;;;16.90;52.63;100550.50;2391002;28;45581;-79
2022/09/26 08:44:52;;;;;;;;;1.00;1.00;;;;;16.97;52.42;100539.38;2385933;28;44895;-79
2022/09/26 08:47:48;;;;;;;;;1.75;1.25;;;;;17.13;51.86;100542.88;2392974;28;45393;-79
2022/09/26 08:49:30;;;;;;;;;2.00;2.00;;;;;17.17;51.56;100541.75;2384995;28;47474;-79
2022/09/26 08:50:52;;;;;;;;;2.00;1.50;;;;;17.18;51.22;100522.22;2390151;28;45338;-79
2022/09/26 08:52:12;;;;;;;;;1.00;1.00;;;;;17.21;51.75;100522.84;2385796;28;45772;-79
2022/09/26 08:53:41;;;;;;;;;1.00;1.00;;;;;17.27;51.05;100532.25;2384079;28;44709;-79
2022/09/26 08:54:56;;;;;;;;;1.00;1.00;;;;;17.30;50.35;100534.72;2386430;28;46673;-79
2022/09/26 08:56:17;;;;;;;;;1.75;1.00;;;;;17.32;50.75;100532.78;2389103;28;45451;-80
2022/09/26 08:57:41;;;;;;;;;1.50;1.50;;;;;17.38;50.95;100534.22;2386026;28;46330;-79
2022/09/26 08:58:54;;;;;;;;;2.50;2.00;;;;;17.40;51.12;100527.00;2388346;28;44748;-79
2022/09/26 09:00:20;;;;;;;;;1.00;1.00;;;;;17.44;49.60;100532.94;2393167;28;46381;-79
2022/09/26 09:01:38;;;;;;;;;2.25;0.25;;;;;17.48;50.42;100534.44;2390470;28;45487;-79
2022/09/26 09:02:54;;;;;;;;;2.25;2.00;;;;;17.53;50.46;100523.53;2392500;28;45495;-79
2022/09/26 09:04:14;;;;;;;;;3.50;1.75;;;;;17.52;50.37;100514.69;2393091;28;45275;-79
2022/09/26 09:05:30;;;;;;;;;2.00;1.00;;;;;17.56;50.49;100519.81;2392519;28;45459;-78
2022/09/26 09:06:42;;;;;;;;;1.25;1.25;;;;;17.56;50.33;100514.50;2393464;28;45218;-80
2022/09/26 09:07:56;;;;;;;;;1.50;1.00;;;;;17.58;50.31;100512.59;2393164;28;46242;-80
2022/09/26 09:09:06;;;;;;;;;2.00;1.00;;;;;17.59;50.39;100514.28;2390472;28;45152;-80
2022/09/26 09:10:24;;;;;;;;;1.00;1.00;;;;;17.60;50.09;100510.69;2390950;28;45493;-79
2022/09/26 09:12:09;;;;;;;;;2.00;2.00;;;;;17.62;50.19;100509.63;2386802;28;44825;-79
2022/09/26 09:13:42;;;;;;;;;1.00;1.00;;;;;17.64;50.19;100501.53;2355339;29;45456;-79
2022/09/26 09:14:58;;;;;;;;;1.25;1.25;;;;;17.69;49.91;100499.41;2364566;29;44784;-79
2022/09/26 09:16:27;;;;;;;;;1.00;1.00;;;;;17.68;49.46;100495.06;2383683;28;45588;-79
2022/09/26 09:17:46;;;;;;;;;1.25;1.25;;;;;17.67;49.60;100480.06;2391912;28;45425;-79
2022/09/26 09:19:13;;;;;;;;;1.00;1.00;;;;;17.69;48.79;100490.59;2390767;28;46672;-79
2022/09/26 09:20:32;;;;;;;;;2.50;1.25;;;;;17.68;49.07;100481.75;2386009;28;45300;-80
2022/09/26 09:21:57;;;;;;;;;1.00;1.00;;;;;17.69;49.91;100483.47;2378796;28;47502;-80
2022/09/26 09:23:30;;;;;;;;;1.75;1.00;;;;;17.71;49.64;100480.69;2387137;28;45234;-80
2022/09/26 09:24:55;;;;;;;;;2.00;1.00;;;;;17.73;49.69;100470.84;2391528;28;45469;-80
2022/09/26 09:26:22;;;;;;;;;1.00;1.00;;;;;17.79;49.36;100461.59;2397479;28;44735;-80
2022/09/26 09:28:03;;;;;;;;;1.00;1.00;;;;;17.85;49.92;100467.31;2392848;28;45435;-80
2022/09/26 09:29:33;;;;;;;;;1.00;1.00;;;;;17.90;48.95;100453.75;2389622;28;44791;-79
2022/09/26 09:30:49;;;;;;;;;2.25;0.25;;;;;17.92;48.75;100443.00;2383975;28;45564;-78
2022/09/26 09:32:02;;;;;;;;;1.75;1.00;;;;;17.92;49.33;100459.81;2387547;28;45261;-77
2022/09/26 09:33:17;;;;;;;;;1.00;1.00;;;;;17.92;48.98;100451.81;2391116;28;46545;-77
2022/09/26 09:34:33;;;;;;;;;1.00;1.00;;;;;17.93;48.75;100458.81;2389674;28;45250;-78
2022/09/26 09:35:51;;;;;;;;;0.25;0.25;;;;;17.92;48.64;100449.16;2383438;28;45577;-78
2022/09/26 09:37:10;;;;;;;;;1.00;1.00;;;;;17.95;48.27;100440.13;2391728;28;44716;-78
2022/09/26 09:38:31;;;;;;;;;1.25;1.00;;;;;17.97;48.78;100440.88;2393137;28;46383;-78
2022/09/26 09:39:46;;;;;;;;;0.25;0.25;;;;;18.03;48.71;100431.59;2389416;28;45429;-78
2022/09/26 09:41:15;;;;;;;;;1.25;1.25;;;;;18.08;48.94;100429.47;2384232;28;45366;-78
2022/09/26 09:42:49;;;;;;;;;1.00;1.00;;;;;18.10;48.47;100430.22;2385721;28;45345;-78
2022/09/26 09:44:04;;;;;;;;;4.00;1.75;;;;;18.13;47.93;100440.63;2392503;28;46950;-78
2022/09/26 09:45:38;;;;;;;;;3.00;1.50;;;;;18.15;48.03;100425.41;2391552;28;45350;-78
2022/09/26 09:46:50;;;;;;;;;3.75;1.00;;;;;18.17;47.53;100428.84;2384345;28;46280;-78
2022/09/26 09:48:00;;;;;;;;;0.00;0.00;;;;;18.16;47.28;100419.16;2388535;28;45252;-78
2022/09/26 09:49:20;;;;;;;;;1.00;1.00;;;;;18.19;47.80;100431.38;2391436;28;46523;-79
2022/09/26 09:51:02;;;;;;;;;1.75;1.00;;;;;18.16;47.67;100416.50;2386928;28;45131;-79
2022/09/26 09:52:37;;;;;;;;;1.00;1.00;;;;;18.15;48.30;100424.59;2387425;28;45533;-79
2022/09/26 09:54:03;;;;;;;;;1.00;1.00;;;;;18.09;47.76;100415.22;2389546;28;44624;-79
2022/09/26 09:55:30;;;;;;;;;1.25;1.00;;;;;18.08;47.74;100411.72;2386825;28;46367;-80
2022/09/26 09:56:50;;;;;;;;;1.00;1.00;;;;;18.08;48.25;100405.53;2387800;28;45528;-79
2022/09/26 09:58:15;;;;;;;;;0.50;0.50;;;;;18.09;48.54;100400.13;2384467;28;45729;-79
2022/09/26 09:59:25;;;;;;;;;1.00;1.00;;;;;18.14;48.23;100418.41;2384463;28;45436;-79
2022/09/26 10:00:46;;;;;;;;;3.00;0.00;;;;;18.14;47.85;100394.47;2386074;28;46726;-79
2022/09/26 10:02:18;;;;;;;;;1.00;1.00;;;;;18.15;47.96;100380.19;2387997;28;45493;-79
2022/09/26 10:03:43;;;;;;;;;1.00;1.00;;;;;18.18;47.93;100387.97;2394613;28;45559;-79
2022/09/26 10:05:22;;;;;;;;;1.00;1.00;;;;;18.23;46.67;100382.34;2389750;28;44724;-80
2022/09/26 10:06:32;;;;;;;;;1.25;1.25;;;;;18.25;47.58;100376.94;2388013;28;45519;-79
2022/09/26 10:07:46;;;;;;;;;1.50;1.00;;;;;18.26;47.20;100384.81;2386685;28;45228;-79
2022/09/26 10:08:56;;;;;;;;;2.00;1.00;;;;;18.26;47.82;100387.47;2388698;28;46321;-79
2022/09/26 10:10:19;;;;;;;;;1.00;0.00;;;;;18.28;47.40;100385.53;2393937;28;45296;-79
2022/09/26 10:11:41;;;;;;;;;1.00;1.00;;;;;18.27;47.57;100375.03;2392744;28;46613;-79
2022/09/26 10:12:52;;;;;;;;;1.75;1.00;;;;;18.29;47.29;100383.72;2388907;28;44894;-79
2022/09/26 10:14:11;;;;;;;;;1.00;1.00;;;;;18.26;47.16;100373.31;2392537;28;45296;-78
2022/09/26 10:15:26;;;;;;;;;1.00;1.00;;;;;18.26;47.03;100370.66;2391203;28;45353;-79
2022/09/26 10:17:08;;;;;;;;;0.50;0.50;;;;;18.26;46.97;100379.47;2390951;28;47176;-79
2022/09/26 10:18:20;;;;;;;;;1.00;1.00;;;;;18.22;46.65;100376.19;2387161;28;45465;-79
2022/09/26 10:19:37;;;;;;;;;0.75;0.25;;;;;18.20;47.27;100367.47;2394222;28;46345;-79
2022/09/26 10:20:52;;;;;;;;;0.00;0.00;;;;;18.19;47.17;100363.13;2389200;28;45283;-79
2022/09/26 10:22:08;;;;;;;;;0.25;0.25;;;;;18.18;47.32;100361.38;2394363;28;46160;-79
2022/09/26 10:23:38;;;;;;;;;1.25;1.00;;;;;18.22;47.13;100365.53;2394526;28;45346;-79
2022/09/26 10:24:52;;;;;;;;;1.25;1.00;;;;;18.17;46.64;100357.03;2393691;28;46398;-79
2022/09/26 10:26:06;;;;;;;;;1.00;1.00;;;;;18.14;47.19;100356.38;2385843;28;45248;-78
2022/09/26 10:27:20;;;;;;;;;1.00;0.50;;;;;18.14;47.71;100346.59;2393264;28;46638;-79
2022/09/26 10:28:46;;;;;;;;;0.00;0.00;;;;;18.17;47.21;100357.03;2385185;28;45481;-78
2022/09/26 10:29:59;;;;;;;;;0.25;0.25;;;;;18.16;47.42;100354.47;2392632;28;46741;-79
2022/09/26 10:31:11;;;;;;;;;3.00;1.00;;;;;18.19;46.74;100339.19;2394559;28;45157;-79
2022/09/26 10:32:22;;;;;;;;;1.25;0.00;;;;;18.17;46.50;100346.41;2391995;28;46250;-79
2022/09/26 10:33:35;;;;;;;;;0.00;0.00;;;;;18.18;47.10;100348.06;2388975;28;45258;-79
2022/09/26 10:35:02;;;;;;;;;0.50;0.00;;;;;18.22;47.22;100338.94;2393067;28;45338;-79
2022/09/26 10:36:26;;;;;;;;;0.00;0.00;;;;;18.22;46.94;100336.28;2387124;28;45289;-79
2022/09/26 10:37:37;;;;;;;;;1.00;1.00;;;;;18.26;47.61;100320.97;2387734;28;45487;-79
2022/09/26 10:40:49;;;;;;;;;1.00;1.00;;;;;18.30;47.13;100324.22;2393871;28;46241;-79
2022/09/26 10:42:01;;;;;;;;;2.00;1.00;;;;;18.25;47.24;100318.44;2393345;28;45227;-79
2022/09/26 10:43:23;;;;;;;;;1.00;1.00;;;;;18.26;47.18;100312.13;2390943;28;45412;-79
2022/09/26 10:44:35;;;;;;;;;3.50;1.50;;;;;18.25;47.51;100305.94;2386731;28;44807;-79
2022/09/26 10:45:48;;;;;;;;;1.00;1.00;;;;;18.26;47.28;100282.88;2391364;28;46560;-79
2022/09/26 10:47:07;;;;;;;;;1.00;1.00;;;;;18.26;47.44;100304.16;2393107;28;44731;-79
2022/09/26 10:48:20;;;;;;;;;1.75;1.00;;;;;18.29;47.43;100303.94;2393691;28;46544;-79
2022/09/26 10:49:38;;;;;;;;;1.00;1.00;;;;;18.31;47.87;100302.00;2394144;28;45504;-79
2022/09/26 10:50:51;;;;;;;;;2.75;1.50;;;;;18.35;48.00;100297.31;2393958;28;46243;-79
2022/09/26 10:52:18;;;;;;;;;3.50;2.00;;;;;18.39;47.92;100289.00;2394241;28;45269;-79
2022/09/26 10:53:38;;;;;;;;;3.50;1.50;;;;;18.43;47.64;100305.56;2394277;28;46433;-78
2022/09/26 10:55:14;;;;;;;;;0.75;0.75;;;;;18.46;46.84;100291.19;2388266;28;45220;-79
2022/09/26 10:56:29;;;;;;;;;1.50;1.00;;;;;18.42;47.56;100287.94;2384635;28;45501;-79
2022/09/26 10:57:45;;;;;;;;;2.00;2.00;;;;;18.41;47.66;100286.22;2388607;28;45357;-79
2022/09/26 10:59:04;;;;;;;;;2.25;1.00;;;;;18.36;47.80;100283.03;2394121;28;46369;-79
2022/09/26 11:00:37;;;;;;;;;2.00;2.00;;;;;18.33;48.85;100274.34;2393738;28;44755;-79
2022/09/26 11:01:50;;;;;;;;;2.25;1.00;;;;;18.33;48.95;100274.34;2392644;28;45462;-78
2022/09/26 11:03:03;;;;;;;;;1.00;1.00;;;;;18.35;49.13;100282.19;2393393;28;45545;-77
2022/09/26 11:05:55;;;;;;;;;2.00;1.00;;;;;18.30;49.02;100279.88;2387930;28;44716;-77
2022/09/26 11:07:10;;;;;;;;;1.50;1.50;;;;;18.27;49.93;100264.13;2392977;28;45454;-77
2022/09/26 11:08:20;;;;;;;;;3.00;0.75;;;;;18.27;49.46;100269.44;2390796;28;45294;-77
2022/09/26 11:09:31;;;;;;;;;0.00;0.00;;;;;18.25;49.22;100275.88;2393466;28;46406;-77
2022/09/26 11:10:45;;;;;;;;;0.50;0.50;;;;;18.20;49.79;100279.69;2393416;28;45366;-77
2022/09/26 11:11:55;;;;;;;;;2.25;1.00;;;;;18.19;50.03;100266.50;2385338;28;46229;-78
2022/09/26 11:13:27;;;;;;;;;1.00;1.00;;;;;18.21;49.87;100280.56;2388050;28;45486;-77
2022/09/26 11:14:44;;;;;;;;;1.00;1.00;;;;;18.21;49.82;100267.25;2389298;28;45538;-77
2022/09/26 11:16:00;;;;;;;;;2.00;1.00;;;;;18.22;50.09;100276.94;2394220;28;45342;-78
2022/09/26 11:17:10;;;;;;;;;1.00;1.00;;;;;18.20;50.21;100273.53;2394152;28;45465;-77
2022/09/26 11:18:32;;;;;;;;;1.00;1.00;;;;;18.17;50.10;100263.09;2393988;28;44909;-77
2022/09/26 11:19:51;;;;;;;;;1.50;1.00;;;;;18.14;50.68;100268.63;2394045;28;46222;-77
2022/09/26 11:21:14;;;;;;;;;1.00;1.00;;;;;18.13;50.27;100266.91;2393555;28;45449;-79
2022/09/26 11:22:52;;;;;;;;;0.50;0.50;;;;;18.10;50.13;100263.53;2393176;28;45711;-79
2022/09/26 11:24:26;;;;;;;;;0.75;0.75;;;;;18.07;50.94;100261.13;2378220;28;44631;-79
2022/09/26 11:25:53;;;;;;;;;0.75;0.75;;;;;18.04;51.39;100258.66;2393503;28;45396;-79
2022/09/26 11:27:32;;;;;;;;;2.75;1.00;;;;;18.06;51.29;100261.19;2393236;28;44745;-79
2022/09/26 11:28:49;;;;;;;;;2.75;1.00;;;;;18.02;51.86;100249.97;2393317;28;46294;-79